Time;durP1;ratioP1;P1;durP2;ratioP2;P2;SDS_P1;SDS_P2;PMS_P1;PMS_P2;Temp;Humidity;BMP_temperature;BMP_pressure;BME280_temperature;BME280_humidity;BME280_pressure;Samples;Min_cycle;Max_cycle;Signal;HPM_P1;HPM_P2
2022/07/01 00:02:03;;;;;;;1.33;1.20;;;17.70;99.90;;;;;;5003424;28;20196;-67
2022/07/01 00:04:29;;;;;;;2.20;1.50;;;17.60;99.90;;;;;;4992174;28;20221;-67
2022/07/01 00:06:59;;;;;;;1.97;1.67;;;17.40;99.90;;;;;;4994367;28;20232;-66
2022/07/01 00:09:27;;;;;;;3.63;1.47;;;17.30;99.90;;;;;;5000173;28;20216;-66
2022/07/01 00:11:53;;;;;;;3.67;1.30;;;17.20;99.90;;;;;;4994698;28;20200;-66
2022/07/01 00:14:22;;;;;;;3.37;1.00;;;17.10;99.90;;;;;;4999478;28;20224;-66
2022/07/01 00:16:50;;;;;;;1.13;0.90;;;17.00;99.90;;;;;;4997636;28;20562;-66
2022/07/01 00:19:17;;;;;;;1.20;1.07;;;16.90;99.90;;;;;;4993666;28;20248;-66
2022/07/01 00:21:44;;;;;;;1.93;1.10;;;16.80;99.90;;;;;;4994030;28;20663;-67
2022/07/01 00:24:11;;;;;;;2.03;0.90;;;16.80;99.90;;;;;;4992893;28;20233;-67
2022/07/01 00:26:37;;;;;;;1.60;1.30;;;16.70;99.90;;;;;;4995280;28;20203;-67
2022/07/01 00:29:04;;;;;;;3.00;1.30;;;16.70;99.90;;;;;;5004315;28;20743;-67
2022/07/01 00:31:31;;;;;;;2.73;1.20;;;16.70;99.90;;;;;;5008197;28;20196;-67
2022/07/01 00:33:58;;;;;;;2.53;1.20;;;16.70;99.90;;;;;;5000598;28;20196;-67
2022/07/01 00:36:24;;;;;;;2.80;1.20;;;16.70;99.90;;;;;;4992600;28;20221;-67
2022/07/01 00:38:57;;;;;;;2.13;1.17;;;16.60;99.90;;;;;;4992415;28;20216;-67
2022/07/01 00:41:23;;;;;;;3.47;0.90;;;16.60;99.90;;;;;;4992909;28;20211;-67
2022/07/01 00:43:50;;;;;;;2.63;0.97;;;16.60;99.90;;;;;;5007993;28;20669;-66
2022/07/01 00:46:21;;;;;;;1.23;0.90;;;16.50;99.90;;;;;;5009230;28;20269;-66
2022/07/01 00:48:50;;;;;;;1.60;0.80;;;16.50;99.90;;;;;;4993795;28;20661;-66
2022/07/01 00:51:19;;;;;;;1.20;0.90;;;16.50;99.90;;;;;;4992589;28;20197;-66
2022/07/01 00:53:47;;;;;;;0.70;0.70;;;16.40;99.90;;;;;;4991720;28;20211;-66
2022/07/01 00:56:14;;;;;;;0.50;0.50;;;16.30;99.90;;;;;;4992255;28;20623;-66
2022/07/01 00:58:41;;;;;;;2.47;0.80;;;16.30;99.90;;;;;;4991729;28;20231;-66
2022/07/01 01:01:07;;;;;;;0.83;0.80;;;16.20;99.90;;;;;;5006666;28;20204;-66
2022/07/01 01:03:34;;;;;;;1.40;0.90;;;16.20;99.90;;;;;;4992913;28;20193;-66
2022/07/01 01:06:03;;;;;;;0.70;0.70;;;16.00;99.90;;;;;;4992790;28;20266;-66
2022/07/01 01:08:30;;;;;;;1.00;0.60;;;16.10;99.90;;;;;;4992309;28;20702;-66
2022/07/01 01:10:57;;;;;;;1.10;0.70;;;16.10;99.90;;;;;;4992348;28;20193;-66
2022/07/01 01:13:23;;;;;;;1.80;0.80;;;16.00;99.90;;;;;;4991781;28;20201;-66
2022/07/01 01:15:50;;;;;;;0.70;0.70;;;15.90;99.90;;;;;;4997390;28;20221;-66
2022/07/01 01:18:17;;;;;;;1.87;0.70;;;16.00;99.90;;;;;;5006147;28;20631;-66
2022/07/01 01:20:43;;;;;;;1.23;0.80;;;16.00;99.90;;;;;;4993760;28;20212;-66
2022/07/01 01:23:10;;;;;;;2.03;0.80;;;16.00;99.90;;;;;;4999479;28;20200;-66
2022/07/01 01:25:37;;;;;;;2.87;0.80;;;16.00;99.90;;;;;;4998400;28;20219;-66
2022/07/01 01:28:04;;;;;;;0.90;0.77;;;16.10;99.90;;;;;;4990996;28;20196;-66
2022/07/01 01:30:30;;;;;;;3.43;0.70;;;16.10;99.90;;;;;;4994782;28;20201;-66
2022/07/01 01:32:57;;;;;;;2.00;0.87;;;16.10;99.90;;;;;;4998871;28;20558;-66
2022/07/01 01:35:24;;;;;;;3.30;1.00;;;16.10;99.90;;;;;;4999354;28;20217;-69
2022/07/01 01:37:51;;;;;;;5.40;1.17;;;16.10;99.90;;;;;;4993084;28;20287;-69
2022/07/01 01:40:18;;;;;;;5.27;1.00;;;16.10;99.90;;;;;;4990881;28;20719;-69
2022/07/01 01:42:46;;;;;;;1.50;0.80;;;16.10;99.90;;;;;;4993080;28;20200;-68
2022/07/01 01:45:13;;;;;;;2.83;0.90;;;16.20;99.90;;;;;;5008666;28;20220;-69
2022/07/01 01:47:40;;;;;;;1.40;0.73;;;16.20;99.90;;;;;;4999085;28;20225;-69
2022/07/01 01:50:09;;;;;;;0.70;0.70;;;16.20;99.90;;;;;;5009933;28;20216;-69
2022/07/01 01:52:37;;;;;;;0.70;0.70;;;16.20;99.90;;;;;;5005029;28;20200;-69
2022/07/01 01:55:05;;;;;;;1.37;0.80;;;16.10;99.90;;;;;;5008007;28;20255;-68
2022/07/01 01:57:32;;;;;;;0.53;0.53;;;16.10;99.90;;;;;;5009868;28;20196;-69
2022/07/01 01:59:58;;;;;;;0.67;0.60;;;16.10;99.90;;;;;;5016078;28;20206;-69
2022/07/01 02:02:25;;;;;;;1.57;0.80;;;16.00;99.90;;;;;;5005817;28;20196;-69
2022/07/01 02:04:52;;;;;;;0.60;0.60;;;16.00;99.90;;;;;;5009017;28;20220;-69
2022/07/01 02:07:19;;;;;;;1.63;0.80;;;16.10;99.90;;;;;;5009532;28;20674;-69
2022/07/01 02:09:45;;;;;;;0.60;0.60;;;16.00;99.90;;;;;;5009121;28;20216;-68
2022/07/01 02:12:12;;;;;;;0.60;0.60;;;16.10;99.90;;;;;;5004700;28;20199;-69
2022/07/01 02:14:39;;;;;;;0.70;0.60;;;16.10;99.90;;;;;;5007866;28;20218;-69
2022/07/01 02:17:06;;;;;;;0.73;0.60;;;16.10;99.90;;;;;;5009533;28;20311;-70
2022/07/01 02:19:33;;;;;;;1.40;0.60;;;16.10;99.90;;;;;;5004609;28;20577;-69
2022/07/01 02:22:00;;;;;;;1.77;0.70;;;16.00;99.90;;;;;;5007709;28;20200;-68
2022/07/01 02:24:27;;;;;;;2.50;0.90;;;16.00;99.90;;;;;;5008944;28;20315;-69
2022/07/01 02:26:53;;;;;;;0.90;0.60;;;16.10;99.90;;;;;;5008839;28;20207;-69
2022/07/01 02:29:20;;;;;;;0.60;0.60;;;16.10;99.90;;;;;;5009544;28;20245;-69
2022/07/01 02:31:47;;;;;;;1.40;0.70;;;15.80;99.90;;;;;;5009132;28;20204;-70
2022/07/01 02:34:14;;;;;;;1.07;0.57;;;15.90;99.90;;;;;;5008989;28;20667;-69
2022/07/01 02:36:40;;;;;;;0.83;0.60;;;15.90;99.90;;;;;;5008880;28;20208;-68
2022/07/01 02:39:07;;;;;;;0.60;0.60;;;15.90;99.90;;;;;;5003976;28;20602;-69
2022/07/01 02:42:22;;;;;;;2.67;0.60;;;15.80;99.90;;;;;;5008450;28;20232;-69
2022/07/01 02:44:20;;;;;;;1.57;0.60;;;15.70;99.90;;;;;;5010676;28;20195;-69
2022/07/01 02:46:47;;;;;;;1.33;0.50;;;15.80;99.90;;;;;;5005405;28;20201;-68
2022/07/01 02:49:15;;;;;;;1.03;0.53;;;15.80;99.90;;;;;;5009343;28;20216;-69
2022/07/01 02:51:41;;;;;;;2.47;0.57;;;15.80;99.90;;;;;;5009179;28;20207;-68
2022/07/01 02:54:08;;;;;;;1.07;0.63;;;15.80;99.90;;;;;;5007564;28;20203;-69
2022/07/01 02:56:35;;;;;;;0.83;0.60;;;15.70;99.90;;;;;;4997577;28;20196;-69
2022/07/01 02:59:02;;;;;;;0.50;0.50;;;15.80;99.90;;;;;;5008474;28;20204;-69
2022/07/01 03:01:28;;;;;;;1.07;0.70;;;15.90;99.90;;;;;;5009217;28;20197;-69
2022/07/01 03:03:55;;;;;;;1.80;0.60;;;15.80;99.90;;;;;;5002417;28;20236;-69
2022/07/01 03:06:22;;;;;;;1.23;0.60;;;15.80;99.90;;;;;;5008647;28;20219;-69
2022/07/01 03:08:49;;;;;;;0.60;0.60;;;15.80;99.90;;;;;;5007987;28;20582;-69
2022/07/01 03:11:16;;;;;;;0.57;0.57;;;15.70;99.90;;;;;;5008025;28;20192;-69
2022/07/01 03:13:42;;;;;;;2.60;0.70;;;15.70;99.90;;;;;;4996763;28;20200;-69
2022/07/01 03:16:09;;;;;;;0.50;0.50;;;15.70;99.90;;;;;;5007261;28;20220;-70
2022/07/01 03:18:36;;;;;;;0.93;0.80;;;15.60;99.90;;;;;;5007288;28;20262;-69
2022/07/01 03:21:03;;;;;;;0.80;0.60;;;15.50;99.90;;;;;;5008999;28;20194;-69
2022/07/01 03:23:29;;;;;;;0.90;0.70;;;15.50;99.90;;;;;;5006638;28;20196;-69
2022/07/01 03:25:56;;;;;;;0.90;0.70;;;15.60;99.90;;;;;;5006981;28;20227;-69
2022/07/01 03:28:23;;;;;;;0.60;0.60;;;15.60;99.90;;;;;;5008804;28;20199;-69
2022/07/01 03:30:49;;;;;;;2.73;0.70;;;15.60;99.90;;;;;;5007513;28;20220;-70
2022/07/01 03:33:16;;;;;;;1.83;0.70;;;15.50;99.90;;;;;;5006824;28;20632;-69
2022/07/01 03:35:45;;;;;;;1.17;0.90;;;15.50;99.90;;;;;;5007774;28;20609;-70
2022/07/01 03:38:12;;;;;;;0.73;0.73;;;15.50;99.90;;;;;;5008466;28;20288;-70
2022/07/01 03:40:39;;;;;;;0.73;0.73;;;15.50;99.90;;;;;;5014677;28;20378;-70
2022/07/01 03:43:06;;;;;;;0.97;0.60;;;15.50;99.90;;;;;;5012196;28;20199;-69
2022/07/01 03:45:33;;;;;;;0.63;0.60;;;15.50;99.90;;;;;;5011563;28;20212;-69
2022/07/01 03:48:00;;;;;;;0.63;0.60;;;15.60;99.90;;;;;;5010370;28;20196;-70
2022/07/01 03:50:27;;;;;;;0.70;0.70;;;15.60;99.90;;;;;;5005897;28;20240;-70
2022/07/01 03:55:39;;;;;;;2.30;1.27;;;15.60;99.90;;;;;;5008081;28;20216;-70
2022/07/01 03:58:06;;;;;;;1.27;0.87;;;15.60;99.90;;;;;;5011439;28;20195;-69
2022/07/01 04:00:35;;;;;;;1.27;0.70;;;15.60;99.90;;;;;;5011302;28;20590;-69
2022/07/01 04:03:03;;;;;;;1.13;0.60;;;15.50;99.90;;;;;;5011769;28;20203;-69
2022/07/01 04:05:33;;;;;;;1.20;0.80;;;15.50;99.90;;;;;;5008667;28;20224;-70
2022/07/01 04:08:02;;;;;;;1.60;0.80;;;15.50;99.90;;;;;;5011711;28;20196;-69
2022/07/01 04:10:32;;;;;;;1.03;0.80;;;15.60;99.90;;;;;;5011441;28;20238;-70
2022/07/01 04:13:00;;;;;;;0.93;0.70;;;15.60;99.90;;;;;;5011455;28;20201;-70
2022/07/01 04:15:47;;;;;;;0.73;0.73;;;15.70;99.90;;;;;;5004768;28;20224;-69
2022/07/01 04:18:14;;;;;;;0.60;0.60;;;15.70;99.90;;;;;;5011772;28;20214;-69
2022/07/01 04:20:40;;;;;;;0.90;0.80;;;15.70;99.90;;;;;;5011470;28;20200;-69
2022/07/01 04:23:07;;;;;;;0.87;0.70;;;15.60;99.90;;;;;;5008668;28;20200;-69
2022/07/01 04:25:34;;;;;;;0.97;0.77;;;15.60;99.90;;;;;;5013097;28;20606;-69
2022/07/01 04:28:02;;;;;;;0.80;0.80;;;15.60;99.90;;;;;;5010972;28;20676;-70
2022/07/01 04:30:28;;;;;;;0.50;0.50;;;15.60;99.90;;;;;;5011757;28;20709;-69
2022/07/01 04:32:55;;;;;;;0.57;0.57;;;15.70;99.90;;;;;;5007882;28;20208;-69
2022/07/01 04:35:22;;;;;;;0.70;0.70;;;15.60;99.90;;;;;;5010609;28;20597;-69
2022/07/01 04:37:49;;;;;;;2.20;0.70;;;15.60;99.90;;;;;;5011324;28;20431;-69
2022/07/01 04:40:15;;;;;;;0.67;0.60;;;15.60;99.90;;;;;;5010642;28;20200;-69
2022/07/01 04:42:42;;;;;;;2.23;0.60;;;15.70;99.90;;;;;;5007239;28;20700;-69
2022/07/01 04:45:10;;;;;;;0.53;0.50;;;15.70;99.90;;;;;;5010860;28;20242;-69
2022/07/01 04:47:36;;;;;;;0.70;0.70;;;15.70;99.90;;;;;;5011227;28;20192;-69
2022/07/01 04:50:04;;;;;;;0.97;0.73;;;15.70;99.90;;;;;;5009267;28;20216;-67
2022/07/01 04:52:30;;;;;;;1.07;1.03;;;15.70;99.90;;;;;;5004263;28;20203;-67
2022/07/01 04:54:57;;;;;;;0.70;0.70;;;15.70;99.90;;;;;;5015558;28;20212;-67
2022/07/01 04:57:24;;;;;;;0.70;0.70;;;15.80;99.90;;;;;;5009984;28;20197;-68
2022/07/01 04:59:50;;;;;;;0.50;0.50;;;15.80;99.90;;;;;;5009518;28;20211;-68
2022/07/01 05:02:17;;;;;;;1.00;0.80;;;15.80;99.90;;;;;;5009526;28;20203;-67
2022/07/01 05:04:44;;;;;;;1.10;0.70;;;15.80;99.90;;;;;;5009850;28;20227;-68
2022/07/01 05:07:27;;;;;;;1.83;0.70;;;15.80;99.90;;;;;;5004303;28;20196;-68
2022/07/01 05:09:55;;;;;;;1.03;0.70;;;15.80;99.90;;;;;;5008626;28;20216;-67
2022/07/01 05:12:26;;;;;;;3.87;0.80;;;15.90;99.90;;;;;;5006926;28;20196;-67
2022/07/01 05:14:52;;;;;;;0.97;0.80;;;15.90;99.90;;;;;;5008107;28;20255;-68
2022/07/01 05:17:19;;;;;;;1.27;0.80;;;16.00;99.90;;;;;;5010457;28;20207;-67
2022/07/01 05:22:31;;;;;;;2.10;0.87;;;16.30;99.90;;;;;;5010420;28;20204;-67
2022/07/01 05:24:58;;;;;;;1.07;0.80;;;16.50;99.90;;;;;;5008929;28;20220;-67
2022/07/01 05:27:24;;;;;;;0.90;0.80;;;16.60;99.90;;;;;;5009384;28;20197;-68
2022/07/01 05:29:53;;;;;;;1.27;0.80;;;16.70;99.90;;;;;;5009969;28;20299;-67
2022/07/01 05:32:20;;;;;;;1.77;0.80;;;17.00;99.90;;;;;;5010486;28;20192;-67
2022/07/01 05:34:46;;;;;;;0.73;0.67;;;17.40;99.90;;;;;;5007695;28;20702;-67
2022/07/01 05:37:16;;;;;;;1.50;1.17;;;17.50;99.90;;;;;;5003655;28;20196;-67
2022/07/01 05:39:43;;;;;;;0.70;0.70;;;17.60;99.90;;;;;;5013378;28;20292;-67
2022/07/01 05:42:16;;;;;;;1.27;0.80;;;17.40;99.90;;;;;;5002326;28;20269;-67
2022/07/01 05:44:43;;;;;;;1.20;0.93;;;17.10;99.90;;;;;;5009202;28;20227;-67
2022/07/01 05:47:10;;;;;;;1.40;0.80;;;17.10;99.90;;;;;;5010131;28;20196;-67
2022/07/01 05:49:36;;;;;;;1.00;0.90;;;17.00;99.90;;;;;;5009807;28;20278;-67
2022/07/01 05:52:03;;;;;;;1.70;0.97;;;17.00;99.90;;;;;;5005888;28;20221;-67
2022/07/01 05:54:30;;;;;;;0.80;0.80;;;16.90;99.90;;;;;;5008791;28;20223;-67
2022/07/01 05:56:56;;;;;;;0.83;0.70;;;16.80;99.90;;;;;;5009499;28;20207;-67
2022/07/01 05:59:23;;;;;;;0.80;0.80;;;17.10;99.90;;;;;;5010224;28;20199;-67
2022/07/01 06:01:50;;;;;;;1.57;0.97;;;17.40;99.90;;;;;;5007842;28;20204;-67
2022/07/01 06:04:17;;;;;;;2.03;1.00;;;17.80;99.90;;;;;;5009434;28;20219;-67
2022/07/01 06:06:44;;;;;;;1.70;1.00;;;17.70;99.90;;;;;;5009434;28;20201;-67
2022/07/01 06:09:11;;;;;;;2.17;1.07;;;17.80;99.90;;;;;;5004290;28;20651;-67
2022/07/01 06:11:37;;;;;;;1.10;0.90;;;17.80;99.90;;;;;;5011774;28;20228;-67
2022/07/01 06:14:04;;;;;;;2.27;1.00;;;18.00;99.90;;;;;;5003448;28;20200;-67
2022/07/01 06:16:31;;;;;;;1.90;1.00;;;18.40;99.90;;;;;;5009758;28;20231;-67
2022/07/01 06:18:58;;;;;;;3.03;1.17;;;18.30;99.90;;;;;;5006424;28;20617;-67
2022/07/01 06:21:26;;;;;;;3.00;1.00;;;18.10;99.90;;;;;;5009721;28;20686;-67
2022/07/01 06:23:52;;;;;;;1.63;1.10;;;18.10;99.90;;;;;;5009336;28;20208;-67
2022/07/01 06:26:19;;;;;;;1.10;0.93;;;18.30;99.90;;;;;;5009196;28;20292;-67
2022/07/01 06:28:45;;;;;;;1.90;1.10;;;18.50;99.90;;;;;;5008618;28;20223;-67
2022/07/01 06:31:12;;;;;;;1.43;1.20;;;18.50;99.90;;;;;;5009113;28;20216;-67
2022/07/01 06:33:39;;;;;;;2.03;1.07;;;18.60;99.90;;;;;;5009458;28;20196;-67
2022/07/01 06:36:06;;;;;;;5.87;1.23;;;18.40;99.90;;;;;;5005774;28;20224;-67
2022/07/01 06:38:32;;;;;;;2.77;1.40;;;18.80;99.90;;;;;;5007643;28;20200;-67
2022/07/01 06:43:45;;;;;;;3.47;1.30;;;18.80;99.90;;;;;;5007221;28;20250;-67
2022/07/01 06:46:11;;;;;;;2.63;1.20;;;19.20;99.90;;;;;;5005398;28;20220;-67
2022/07/01 06:48:38;;;;;;;2.57;1.20;;;19.30;99.90;;;;;;5009197;28;20212;-67
2022/07/01 06:51:05;;;;;;;4.10;1.17;;;19.20;99.90;;;;;;5008857;28;20216;-67
2022/07/01 06:53:32;;;;;;;2.10;1.10;;;19.20;99.90;;;;;;5003510;28;20197;-67
2022/07/01 06:55:58;;;;;;;1.57;1.20;;;19.00;99.90;;;;;;5008023;28;20214;-67
2022/07/01 06:58:25;;;;;;;2.10;1.10;;;18.90;99.90;;;;;;5009070;28;20201;-67
2022/07/01 07:00:52;;;;;;;1.50;1.40;;;19.10;99.90;;;;;;5008590;28;20556;-67
2022/07/01 07:03:18;;;;;;;2.10;1.07;;;19.30;99.90;;;;;;5007412;28;20208;-67
2022/07/01 07:05:45;;;;;;;2.07;1.20;;;19.20;99.90;;;;;;5005646;28;20282;-67
2022/07/01 07:08:12;;;;;;;1.97;1.10;;;19.20;99.90;;;;;;5008852;28;20227;-67
2022/07/01 07:10:39;;;;;;;1.67;1.30;;;19.10;99.90;;;;;;5005622;28;20220;-68
2022/07/01 07:13:06;;;;;;;3.40;1.60;;;19.00;99.90;;;;;;5008839;28;20308;-67
2022/07/01 07:15:33;;;;;;;1.30;1.10;;;19.00;99.90;;;;;;5013745;28;20230;-67
2022/07/01 07:18:00;;;;;;;1.77;1.03;;;18.70;99.90;;;;;;5012605;28;20196;-67
2022/07/01 07:20:27;;;;;;;1.73;1.10;;;18.40;99.90;;;;;;5010258;28;20200;-67
2022/07/01 07:22:54;;;;;;;1.53;1.20;;;18.20;99.90;;;;;;5011270;28;20548;-67
2022/07/01 07:25:21;;;;;;;2.93;1.30;;;18.10;99.90;;;;;;5008587;28;20225;-67
2022/07/01 07:27:47;;;;;;;3.00;1.30;;;18.10;99.90;;;;;;5010576;28;20208;-67
2022/07/01 07:30:15;;;;;;;2.63;1.00;;;17.90;99.90;;;;;;5011794;28;20694;-67
2022/07/01 07:32:41;;;;;;;1.90;1.00;;;18.10;99.90;;;;;;5012046;28;20480;-67
2022/07/01 07:35:09;;;;;;;2.30;1.33;;;18.10;99.90;;;;;;5011857;28;20215;-67
2022/07/01 07:37:36;;;;;;;2.67;1.30;;;18.10;99.90;;;;;;5010083;28;20677;-67
2022/07/01 07:40:06;;;;;;;3.30;1.20;;;18.10;99.90;;;;;;5010068;28;20662;-67
2022/07/01 07:42:33;;;;;;;2.90;1.30;;;18.10;99.90;;;;;;5012205;28;20205;-67
2022/07/01 07:44:59;;;;;;;1.63;1.20;;;17.80;99.90;;;;;;5011443;28;20451;-67
2022/07/01 07:47:26;;;;;;;2.07;1.10;;;17.80;99.90;;;;;;5007170;28;20201;-67
2022/07/01 07:49:52;;;;;;;1.87;1.27;;;17.80;99.90;;;;;;5010911;28;20200;-67
2022/07/01 07:52:19;;;;;;;1.30;1.20;;;17.90;99.90;;;;;;5010695;28;20199;-67
2022/07/01 07:54:46;;;;;;;2.63;1.27;;;17.80;99.90;;;;;;5011588;28;20230;-67
2022/07/01 07:57:13;;;;;;;1.10;1.00;;;17.90;99.90;;;;;;5006664;28;20540;-67
2022/07/01 07:59:39;;;;;;;1.37;1.27;;;17.90;99.90;;;;;;5011871;28;20201;-67
2022/07/01 08:02:07;;;;;;;2.37;1.30;;;17.80;99.90;;;;;;5011894;28;20200;-67
2022/07/01 08:04:33;;;;;;;1.57;1.10;;;17.70;99.90;;;;;;5015350;28;20219;-67
2022/07/01 08:07:00;;;;;;;3.50;1.37;;;17.70;99.90;;;;;;5011787;28;20207;-68
2022/07/01 08:09:27;;;;;;;1.30;1.20;;;17.70;99.90;;;;;;5012294;28;20216;-67
2022/07/01 08:11:54;;;;;;;2.47;1.30;;;17.80;99.90;;;;;;5007854;28;20224;-67
2022/07/01 08:14:21;;;;;;;2.00;1.40;;;17.80;99.90;;;;;;5011439;28;20193;-67
2022/07/01 08:16:49;;;;;;;2.27;1.23;;;17.70;99.90;;;;;;5013680;28;20196;-67
2022/07/01 08:19:16;;;;;;;1.63;1.20;;;17.80;99.90;;;;;;5013957;28;20279;-67
2022/07/01 08:21:43;;;;;;;3.13;1.20;;;17.80;99.90;;;;;;5009804;28;20200;-67
2022/07/01 08:24:09;;;;;;;1.20;1.10;;;18.00;99.90;;;;;;5009717;28;20200;-67
2022/07/01 08:26:36;;;;;;;2.77;1.47;;;18.20;99.90;;;;;;5012143;28;20212;-67
2022/07/01 08:29:03;;;;;;;3.23;1.13;;;18.40;99.90;;;;;;5014411;28;20196;-67
2022/07/01 08:31:31;;;;;;;2.43;1.30;;;18.60;99.90;;;;;;5013197;28;20224;-67
2022/07/01 08:33:58;;;;;;;2.10;1.20;;;18.90;99.90;;;;;;5017423;28;20200;-67
2022/07/01 08:36:25;;;;;;;1.20;1.10;;;19.00;99.90;;;;;;5010944;28;20234;-67
2022/07/01 08:38:53;;;;;;;2.90;1.43;;;18.80;99.90;;;;;;5011182;28;20201;-67
2022/07/01 08:41:19;;;;;;;2.67;1.30;;;18.70;99.90;;;;;;5007834;28;20201;-67
2022/07/01 08:43:46;;;;;;;5.73;1.23;;;18.90;99.90;;;;;;5010839;28;20223;-67
2022/07/01 08:46:13;;;;;;;1.90;1.40;;;19.00;99.90;;;;;;5010611;28;20620;-67
2022/07/01 08:48:44;;;;;;;2.83;1.00;;;19.20;99.90;;;;;;5010901;28;20407;-67
2022/07/01 08:51:11;;;;;;;2.53;1.20;;;19.20;99.90;;;;;;5010273;28;20223;-67
2022/07/01 08:53:38;;;;;;;4.33;1.27;;;19.40;99.90;;;;;;5007753;28;20204;-68
2022/07/01 08:58:51;;;;;;;1.47;1.00;;;19.20;99.90;;;;;;5008219;28;20204;-67
2022/07/01 09:01:22;;;;;;;1.53;1.10;;;19.10;99.90;;;;;;5009160;28;20210;-67
2022/07/01 09:03:55;;;;;;;1.10;1.00;;;19.40;99.90;;;;;;5010511;28;20228;-68
2022/07/01 09:06:26;;;;;;;2.03;1.10;;;19.80;99.90;;;;;;5009046;28;20770;-67
2022/07/01 09:08:53;;;;;;;1.97;1.30;;;20.00;99.90;;;;;;5010585;28;20214;-67
2022/07/01 09:11:28;;;;;;;2.00;0.97;;;19.80;99.90;;;;;;5010547;28;20228;-67
2022/07/01 09:14:25;;;;;;;2.03;1.00;;;19.80;99.90;;;;;;5007950;28;20193;-67
2022/07/01 09:17:00;;;;;;;4.10;1.40;;;19.80;99.90;;;;;;5001282;28;20200;-67
2022/07/01 09:19:28;;;;;;;1.67;1.10;;;19.70;99.90;;;;;;5010391;28;20192;-67
2022/07/01 09:21:59;;;;;;;1.83;1.10;;;19.70;99.90;;;;;;5005007;28;20671;-67
2022/07/01 09:24:34;;;;;;;1.20;0.97;;;19.90;99.90;;;;;;5005064;28;20247;-67
2022/07/01 09:27:10;;;;;;;2.07;1.03;;;19.90;99.90;;;;;;5009898;28;20211;-67
2022/07/01 09:29:39;;;;;;;2.17;1.20;;;19.80;99.90;;;;;;5010371;28;20196;-67
2022/07/01 09:32:08;;;;;;;1.47;1.13;;;19.80;99.90;;;;;;5007654;28;20311;-67
2022/07/01 09:34:39;;;;;;;1.50;1.10;;;20.00;99.90;;;;;;5009874;28;20701;-67
2022/07/01 09:37:07;;;;;;;2.20;1.20;;;20.30;99.90;;;;;;5007195;28;20270;-67
2022/07/01 09:39:47;;;;;;;1.60;1.03;;;20.60;99.90;;;;;;5008340;28;20692;-68
2022/07/01 09:42:17;;;;;;;1.50;0.90;;;20.60;99.90;;;;;;5012055;28;20223;-67
2022/07/01 09:44:58;;;;;;;3.65;1.23;;;21.00;99.90;;;;;;5009430;28;20227;-67
2022/07/01 09:47:30;;;;;;;3.08;1.25;;;21.00;99.90;;;;;;5002197;28;20375;-67
2022/07/01 09:49:58;;;;;;;3.13;1.08;;;21.30;99.90;;;;;;5004834;28;20199;-67
2022/07/01 09:52:25;;;;;;;2.53;1.10;;;21.30;99.90;;;;;;5009455;28;20708;-67
2022/07/01 09:54:52;;;;;;;1.63;1.20;;;21.60;99.90;;;;;;5009302;28;20690;-67
2022/07/01 09:57:21;;;;;;;1.75;1.23;;;21.90;99.90;;;;;;5007446;28;20192;-67
2022/07/01 09:59:49;;;;;;;1.35;0.98;;;22.00;99.90;;;;;;5009020;28;20219;-67
2022/07/01 10:02:20;;;;;;;1.55;1.25;;;22.20;99.90;;;;;;5009447;28;20677;-67
2022/07/01 10:04:56;;;;;;;2.63;1.00;;;22.40;99.90;;;;;;5009033;28;20228;-67
2022/07/01 10:07:41;;;;;;;1.88;1.10;;;22.60;99.90;;;;;;5009049;28;20203;-67
2022/07/01 10:10:45;;;;;;;1.48;0.90;;;22.80;99.90;;;;;;5010257;28;20196;-69
2022/07/01 10:13:15;;;;;;;2.70;1.00;;;23.80;99.90;;;;;;5007817;28;20200;-68
2022/07/01 10:15:45;;;;;;;1.00;0.90;;;24.00;99.90;;;;;;5006677;28;20447;-67
2022/07/01 10:18:29;;;;;;;1.40;1.10;;;24.10;99.90;;;;;;5009772;28;20376;-69
2022/07/01 10:20:58;;;;;;;2.05;1.00;;;24.70;99.90;;;;;;5009677;28;20200;-67
2022/07/01 10:23:36;;;;;;;1.42;0.82;;;24.20;99.90;;;;;;5008766;28;20193;-68
2022/07/01 10:26:04;;;;;;;2.78;1.10;;;24.10;99.90;;;;;;5005800;28;20222;-67
2022/07/01 10:28:57;;;;;;;1.50;0.90;;;23.90;99.90;;;;;;5009429;28;20188;-68
2022/07/01 10:31:36;;;;;;;2.05;1.10;;;24.10;99.90;;;;;;5003799;28;20243;-68
2022/07/01 10:34:10;;;;;;;2.60;1.02;;;24.50;99.90;;;;;;5009042;28;20647;-68
2022/07/01 10:36:37;;;;;;;2.50;1.30;;;24.70;99.90;;;;;;5009515;28;20223;-68
2022/07/01 10:39:07;;;;;;;0.82;0.82;;;25.00;99.90;;;;;;5007726;28;20666;-68
2022/07/01 10:41:41;;;;;;;3.00;1.05;;;25.20;99.90;;;;;;5005793;28;20200;-67
2022/07/01 10:44:11;;;;;;;0.90;0.85;;;25.50;99.90;;;;;;5006132;28;20196;-68
2022/07/01 10:46:45;;;;;;;3.33;1.00;;;25.30;99.90;;;;;;5009319;28;20204;-67
2022/07/01 10:49:35;;;;;;;2.45;0.95;;;25.20;99.90;;;;;;5005510;28;20686;-68
2022/07/01 10:52:20;;;;;;;2.40;1.10;;;25.10;99.90;;;;;;5008752;28;20223;-68
2022/07/01 10:54:52;;;;;;;4.57;1.20;;;25.50;99.90;;;;;;5000375;28;20655;-68
2022/07/01 10:57:18;;;;;;;0.95;0.80;;;25.80;99.90;;;;;;5006235;28;20283;-68
2022/07/01 10:59:50;;;;;;;1.85;0.80;;;25.30;99.90;;;;;;5007008;28;20201;-68
2022/07/01 11:02:25;;;;;;;1.40;1.17;;;24.80;99.90;;;;;;5009159;28;20207;-68
2022/07/01 11:04:57;;;;;;;1.58;1.13;;;24.50;99.90;;;;;;5005023;28;20234;-68
2022/07/01 11:07:26;;;;;;;2.33;1.20;;;24.80;99.90;;;;;;5006090;28;20192;-68
2022/07/01 11:09:53;;;;;;;1.00;0.90;;;24.80;99.90;;;;;;5009059;28;20255;-69
2022/07/01 11:12:25;;;;;;;2.15;1.00;;;25.10;99.90;;;;;;5009003;28;20220;-70
2022/07/01 11:14:54;;;;;;;1.45;1.00;;;25.30;99.90;;;;;;5002121;28;20585;-67
2022/07/01 11:17:21;;;;;;;1.48;0.93;;;25.00;99.90;;;;;;5006981;28;20188;-67
2022/07/01 11:19:53;;;;;;;1.33;0.90;;;25.00;99.90;;;;;;5009182;28;20197;-67
2022/07/01 11:22:22;;;;;;;2.00;1.00;;;25.30;99.90;;;;;;5007256;28;20196;-67
2022/07/01 11:24:54;;;;;;;1.00;0.90;;;25.70;99.90;;;;;;5002458;28;20231;-67
2022/07/01 11:27:22;;;;;;;1.85;0.95;;;25.90;99.90;;;;;;5007590;28;20302;-67
2022/07/01 11:29:53;;;;;;;0.90;0.90;;;25.90;99.90;;;;;;5009239;28;20210;-66
2022/07/01 11:32:26;;;;;;;1.70;0.95;;;25.10;99.90;;;;;;5008555;28;20216;-67
2022/07/01 11:34:53;;;;;;;1.48;0.90;;;24.80;99.90;;;;;;5004884;28;20220;-67
2022/07/01 11:40:08;;;;;;;1.77;1.10;;;24.60;99.90;;;;;;5006222;28;20193;-68
2022/07/01 11:42:35;;;;;;;2.92;0.90;;;24.50;99.90;;;;;;5005216;28;20196;-67
2022/07/01 11:45:03;;;;;;;1.95;0.90;;;24.60;99.90;;;;;;5002826;28;20216;-67
2022/07/01 11:47:29;;;;;;;1.75;1.00;;;24.90;99.90;;;;;;5009105;28;20208;-67
2022/07/01 11:49:57;;;;;;;4.05;0.80;;;24.80;99.90;;;;;;5008873;28;20570;-67
2022/07/01 11:52:25;;;;;;;1.83;0.77;;;24.50;99.90;;;;;;5006427;28;20220;-67
2022/07/01 11:54:54;;;;;;;3.13;1.00;;;24.50;99.90;;;;;;5007859;28;20216;-67
2022/07/01 11:57:41;;;;;;;1.30;0.80;;;24.80;99.90;;;;;;5006394;28;20697;-67
2022/07/01 12:00:12;;;;;;;1.92;0.80;;;25.10;99.90;;;;;;5010273;28;20192;-67
2022/07/01 12:02:39;;;;;;;2.88;0.90;;;25.10;99.90;;;;;;5011189;28;20234;-67
2022/07/01 12:05:06;;;;;;;3.40;0.73;;;25.20;99.90;;;;;;5010200;28;20226;-67
2022/07/01 12:07:33;;;;;;;1.33;0.80;;;24.80;99.90;;;;;;5008088;28;20227;-67
2022/07/01 12:10:01;;;;;;;2.03;0.90;;;24.90;99.90;;;;;;5011859;28;20258;-67
2022/07/01 12:12:28;;;;;;;0.88;0.70;;;25.20;99.90;;;;;;5009886;28;20216;-67
2022/07/01 12:14:57;;;;;;;1.05;0.73;;;25.50;99.90;;;;;;5007872;28;20250;-67
2022/07/01 12:17:25;;;;;;;1.65;0.77;;;25.80;99.90;;;;;;5010766;28;20279;-67
2022/07/01 12:19:53;;;;;;;1.00;0.75;;;26.10;99.90;;;;;;5012028;28;20196;-67
2022/07/01 12:22:25;;;;;;;2.22;1.00;;;26.50;99.90;;;;;;5010373;28;20201;-67
2022/07/01 12:25:04;;;;;;;1.60;0.80;;;26.50;99.90;;;;;;5011752;28;20929;-67
2022/07/01 12:27:33;;;;;;;3.80;0.93;;;26.70;99.90;;;;;;5012969;28;20204;-67
2022/07/01 12:30:00;;;;;;;2.50;0.85;;;26.30;99.90;;;;;;5007720;28;20215;-67
2022/07/01 12:32:28;;;;;;;2.10;0.80;;;25.70;99.90;;;;;;5008390;28;20219;-67
2022/07/01 12:35:01;;;;;;;1.02;0.80;;;25.30;99.90;;;;;;5010664;28;20587;-67
2022/07/01 12:37:38;;;;;;;2.22;0.82;;;25.20;99.90;;;;;;5011305;28;20204;-67
2022/07/01 12:40:07;;;;;;;2.65;0.80;;;25.30;99.90;;;;;;5006098;28;20196;-67
2022/07/01 12:42:42;;;;;;;1.52;0.90;;;25.20;99.90;;;;;;5010876;28;20204;-67
2022/07/01 12:45:12;;;;;;;0.88;0.65;;;24.90;99.90;;;;;;5006862;28;20587;-67
2022/07/01 12:47:47;;;;;;;2.53;1.00;;;25.00;99.90;;;;;;5011193;28;20200;-67
2022/07/01 12:50:16;;;;;;;2.38;0.88;;;24.50;99.90;;;;;;5007795;28;20200;-67
2022/07/01 12:52:57;;;;;;;0.90;0.80;;;24.60;99.90;;;;;;5010755;28;20562;-67
2022/07/01 12:55:25;;;;;;;0.85;0.82;;;24.60;99.90;;;;;;5010154;28;20220;-67
2022/07/01 12:57:53;;;;;;;0.70;0.70;;;24.50;99.90;;;;;;5010550;28;20201;-67
2022/07/01 13:00:22;;;;;;;2.10;0.90;;;24.50;99.90;;;;;;5008616;28;20662;-70
2022/07/01 13:02:57;;;;;;;1.23;0.98;;;24.80;99.90;;;;;;5011257;28;20204;-69
2022/07/01 13:05:24;;;;;;;1.00;0.90;;;24.90;99.90;;;;;;5010538;28;20216;-69
2022/07/01 13:07:51;;;;;;;2.70;0.82;;;25.00;99.90;;;;;;5008624;28;20208;-71
2022/07/01 13:10:18;;;;;;;0.80;0.70;;;25.50;99.90;;;;;;5010791;28;20201;-69